Terminal Aerodrome Forecast
Issued by NWS

Home | Current Version | Previous Version | Text Only | Print | Product List | Glossary On
Versions: 1 2 3 4 5 6 7 8 9 10 11 12 13 14 15 16 17
000
FTUS43 KIND 192300
TAFLAF
TAF
KLAF 192320Z 2000/2024 17005KT P6SM FEW250
     FM201500 23012G19KT P6SM SCT120 BKN250
     FM202100 23012G19KT P6SM VCSH SCT040 BKN100
      AMD LTD TO CLD VIS AND WIND 2001/2013=

USA.gov is the U.S. government's official web portal to all federal, state and local government web resources and services.